Time;durP1;ratioP1;P1;durP2;ratioP2;P2;SDS_P1;SDS_P2;PMS_P1;PMS_P2;Temp;Humidity;BMP_temperature;BMP_pressure;BME280_temperature;BME280_humidity;BME280_pressure;Samples;Min_cycle;Max_cycle;Signal;HPM_P1;HPM_P2
2023/10/29 00:02:46;;;;;;;1999.90;999.90;;;;;;;17.18;90.81;99049.13;10541047;28;20133;-61
2023/10/29 00:07:49;;;;;;;1999.90;999.90;;;;;;;17.90;86.53;99041.88;10541473;28;20047;-61
2023/10/29 00:12:51;;;;;;;1999.90;999.90;;;;;;;17.13;92.25;99035.59;10540641;28;20408;-62
2023/10/29 00:17:54;;;;;;;1999.90;999.90;;;;;;;17.76;88.53;99030.22;10540339;28;20400;-61
2023/10/29 00:22:56;;;;;;;1999.90;999.90;;;;;;;17.14;90.67;99024.00;10540307;28;20135;-62
2023/10/29 00:27:58;;;;;;;1999.90;999.90;;;;;;;17.39;88.11;99031.78;10539891;28;20048;-62
2023/10/29 00:33:01;;;;;;;1999.90;999.90;;;;;;;17.00;92.33;99030.03;10539982;28;20514;-61
2023/10/29 00:38:03;;;;;;;1999.90;999.90;;;;;;;16.99;91.83;99026.56;10522004;28;20496;-61
2023/10/29 00:43:06;;;;;;;1999.90;999.90;;;;;;;17.00;91.88;99006.25;10540465;28;20043;-61
2023/10/29 00:48:10;;;;;;;1999.90;999.90;;;;;;;17.32;91.00;98983.25;10539522;28;20527;-61
2023/10/29 00:53:12;;;;;;;1999.90;999.90;;;;;;;17.05;93.73;98977.47;10521811;28;20492;-61
2023/10/29 00:58:16;;;;;;;1999.90;999.90;;;;;;;17.40;88.82;98983.16;10539214;28;20044;-61
2023/10/29 01:03:19;;;;;;;1999.90;999.90;;;;;;;17.08;90.00;98971.84;10522144;28;20048;-61
2023/10/29 01:08:21;;;;;;;1999.90;999.90;;;;;;;17.21;91.06;98971.25;10521897;28;20081;-61
2023/10/29 01:13:24;;;;;;;1999.90;999.90;;;;;;;17.39;90.19;98968.31;10539664;28;20052;-61
2023/10/29 01:18:26;;;;;;;1999.90;999.90;;;;;;;17.85;87.41;98938.31;10539519;28;20055;-62
2023/10/29 01:23:29;;;;;;;1999.90;999.90;;;;;;;17.93;85.92;98936.44;10538850;28;20489;-62
2023/10/29 01:28:32;;;;;;;1999.90;999.90;;;;;;;17.52;86.41;98933.34;10539424;28;20040;-62
2023/10/29 01:33:35;;;;;;;1999.90;999.90;;;;;;;17.64;87.27;98929.25;10539307;28;20048;-61
2023/10/29 01:38:37;;;;;;;1999.90;999.90;;;;;;;17.48;87.10;98932.03;10541172;28;20133;-62
2023/10/29 01:43:40;;;;;;;1999.90;999.90;;;;;;;17.48;89.14;98918.81;10547649;28;20093;-61
2023/10/29 01:48:42;;;;;;;1999.90;999.90;;;;;;;17.77;86.04;98918.88;10546320;28;20480;-61
2023/10/29 01:53:44;;;;;;;1999.90;999.90;;;;;;;17.21;88.12;98913.06;10546790;28;20059;-61
2023/10/29 01:58:47;;;;;;;1999.90;999.90;;;;;;;17.42;88.83;98918.53;10546968;28;20048;-61
2023/10/29 02:03:49;;;;;;;1999.90;999.90;;;;;;;17.59;87.46;98900.69;10546372;28;20048;-61
2023/10/29 02:08:52;;;;;;;1999.90;999.90;;;;;;;17.51;87.93;98879.56;10545529;28;20127;-62
2023/10/29 02:13:54;;;;;;;1999.90;999.90;;;;;;;17.57;88.39;98878.88;10545932;28;20055;-61
2023/10/29 02:18:57;;;;;;;1999.90;999.90;;;;;;;17.92;87.38;98873.06;10545714;28;20085;-62
2023/10/29 02:24:01;;;;;;;1999.90;999.90;;;;;;;17.55;91.51;98869.44;10545539;28;20044;-62
2023/10/29 02:29:04;;;;;;;1999.90;999.90;;;;;;;17.61;87.51;98892.56;10527657;28;20046;-62
2023/10/29 02:34:06;;;;;;;1999.90;999.90;;;;;;;17.66;87.02;98873.50;10527224;28;20054;-61
2023/10/29 02:39:09;;;;;;;1999.90;999.90;;;;;;;17.80;87.10;98856.78;10544818;28;20052;-62
2023/10/29 02:44:11;;;;;;;1999.90;999.90;;;;;;;17.75;87.04;98867.94;10544098;28;20416;-62
2023/10/29 02:49:14;;;;;;;1999.90;999.90;;;;;;;17.75;87.14;98875.91;10544466;28;20044;-61
2023/10/29 02:54:16;;;;;;;1999.90;999.90;;;;;;;17.49;90.96;98876.31;10543689;28;20404;-61
2023/10/29 02:59:20;;;;;;;1999.90;999.90;;;;;;;17.60;88.71;98880.31;10544073;28;20046;-62
2023/10/29 03:04:23;;;;;;;1999.90;999.90;;;;;;;17.76;88.10;98866.94;10544581;28;20127;-62
2023/10/29 03:09:25;;;;;;;1999.90;999.90;;;;;;;17.49;87.52;98864.91;10543076;28;20409;-61
2023/10/29 03:14:28;;;;;;;1999.90;999.90;;;;;;;17.49;87.03;98868.38;10542894;28;20051;-61
2023/10/29 03:19:30;;;;;;;1999.90;999.90;;;;;;;17.22;87.80;98882.97;10543303;28;20044;-62
2023/10/29 03:24:32;;;;;;;1999.90;999.90;;;;;;;18.03;84.61;98875.28;10543187;28;20044;-61
2023/10/29 03:29:35;;;;;;;1999.90;999.90;;;;;;;17.43;86.52;98869.06;10542300;28;20044;-62
2023/10/29 03:34:37;;;;;;;1999.90;999.90;;;;;;;17.41;85.75;98866.59;10542778;28;20048;-61
2023/10/29 03:39:40;;;;;;;1999.90;999.90;;;;;;;17.23;87.65;98884.59;10541625;28;20382;-61
2023/10/29 03:44:42;;;;;;;1999.90;999.90;;;;;;;17.49;85.54;98889.53;10542273;28;20056;-61
2023/10/29 03:49:44;;;;;;;1999.90;999.90;;;;;;;17.71;83.86;98873.78;10541385;28;20051;-62
2023/10/29 03:54:47;;;;;;;1999.90;999.90;;;;;;;17.62;85.86;98876.50;10541875;28;20055;-62
2023/10/29 03:59:50;;;;;;;1999.90;999.90;;;;;;;18.14;84.15;98864.22;10541414;28;20047;-61
2023/10/29 04:04:52;;;;;;;1999.90;999.90;;;;;;;17.85;86.50;98869.50;10540378;28;20117;-61
2023/10/29 04:10:10;;;;;;;1999.90;999.90;;;;;;;17.23;90.37;98874.88;10541230;28;20044;-62
2023/10/29 04:15:12;;;;;;;1999.90;999.90;;;;;;;17.44;87.08;98863.59;10540468;28;20063;-62
2023/10/29 04:20:14;;;;;;;1999.90;999.90;;;;;;;17.42;86.40;98870.09;10540283;28;20075;-61
2023/10/29 04:25:17;;;;;;;1999.90;999.90;;;;;;;17.69;85.82;98889.03;10540736;28;20512;-62
2023/10/29 04:30:19;;;;;;;1999.90;999.90;;;;;;;17.50;86.05;98877.94;10540565;28;20492;-61
2023/10/29 04:35:22;;;;;;;1999.90;999.90;;;;;;;17.33;86.85;98898.44;10539741;28;20063;-63
2023/10/29 04:40:24;;;;;;;1999.90;999.90;;;;;;;17.54;85.83;98899.56;10539639;28;20477;-61
2023/10/29 04:45:26;;;;;;;1999.90;999.90;;;;;;;18.03;81.49;98901.75;10540303;28;20058;-61
2023/10/29 04:50:30;;;;;;;1999.90;999.90;;;;;;;17.74;81.50;98913.13;10540291;28;20050;-62
2023/10/29 04:55:32;;;;;;;1999.90;999.90;;;;;;;18.08;82.93;98901.22;10540028;28;20055;-62
2023/10/29 05:00:35;;;;;;;1999.90;999.90;;;;;;;17.95;83.87;98891.25;10539217;28;20478;-62
2023/10/29 05:05:37;;;;;;;1999.90;999.90;;;;;;;17.54;86.00;98887.16;10521972;28;20054;-62
2023/10/29 05:10:44;;;;;;;1999.90;999.90;;;;;;;18.14;84.47;98887.22;10539806;28;20083;-62
2023/10/29 05:15:47;;;;;;;1999.90;999.90;;;;;;;17.93;85.79;98887.97;10545963;28;20123;-62
2023/10/29 05:20:49;;;;;;;1999.90;999.90;;;;;;;17.70;84.44;98877.41;10547380;28;20125;-62
2023/10/29 05:25:51;;;;;;;1999.90;999.90;;;;;;;17.78;84.03;98882.63;10529326;28;20476;-61
2023/10/29 05:30:54;;;;;;;1999.90;999.90;;;;;;;17.99;83.67;98903.13;10547132;28;20407;-62
2023/10/29 05:35:57;;;;;;;1999.90;999.90;;;;;;;17.60;86.30;98934.09;10547553;28;20064;-62
2023/10/29 05:41:00;;;;;;;1999.90;999.90;;;;;;;17.95;83.25;98958.25;10546603;28;20408;-62
2023/10/29 05:46:02;;;;;;;1999.90;999.90;;;;;;;17.15;89.11;98927.81;10529213;28;20078;-60
2023/10/29 05:51:05;;;;;;;1999.90;999.90;;;;;;;17.29;88.53;98942.09;10546775;28;20052;-61
2023/10/29 05:56:07;;;;;;;1999.90;999.90;;;;;;;17.12;87.95;98937.94;10546684;28;20044;-61
2023/10/29 06:01:10;;;;;;;1999.90;999.90;;;;;;;17.07;86.81;98959.59;10545810;28;20070;-61
2023/10/29 06:06:12;;;;;;;1999.90;999.90;;;;;;;16.84;88.22;98970.94;10545690;28;20079;-61
2023/10/29 06:11:15;;;;;;;1999.90;999.90;;;;;;;17.11;87.35;98983.88;10545496;28;20044;-61
2023/10/29 06:16:17;;;;;;;1999.90;999.90;;;;;;;17.59;83.33;98992.47;10545280;28;20393;-61
2023/10/29 06:21:20;;;;;;;1999.90;999.90;;;;;;;17.25;85.48;99002.47;10545653;28;20076;-62
2023/10/29 06:26:23;;;;;;;1999.90;999.90;;;;;;;17.04;83.98;99008.34;10545098;28;20129;-61
2023/10/29 06:31:33;;;;;;;1999.90;999.90;;;;;;;17.04;85.00;99029.50;10545349;28;20050;-61
2023/10/29 06:36:35;;;;;;;1999.90;999.90;;;;;;;16.85;85.79;99067.75;10544348;28;20382;-62
2023/10/29 06:41:37;;;;;;;1999.90;999.90;;;;;;;16.83;85.49;99051.22;10544832;28;20127;-62
2023/10/29 06:46:40;;;;;;;1999.90;999.90;;;;;;;17.00;82.36;99053.84;10544068;28;20409;-62
2023/10/29 06:51:42;;;;;;;1999.90;999.90;;;;;;;17.05;82.82;99057.59;10544496;28;20048;-62
2023/10/29 06:56:44;;;;;;;1999.90;999.90;;;;;;;17.48;81.73;99065.13;10544213;28;20048;-62
2023/10/29 07:01:47;;;;;;;1999.90;999.90;;;;;;;16.80;82.90;99072.69;10543642;28;20083;-62
2023/10/29 07:06:49;;;;;;;1999.90;999.90;;;;;;;16.66;84.70;99098.00;10543988;28;20055;-62
2023/10/29 07:11:52;;;;;;;1999.90;999.90;;;;;;;17.50;82.17;99097.53;10543097;28;20404;-62
2023/10/29 07:16:54;;;;;;;1999.90;999.90;;;;;;;17.93;79.50;99086.53;10542868;28;20535;-62
2023/10/29 07:21:57;;;;;;;1999.90;999.90;;;;;;;17.62;81.69;99111.19;10543046;28;20095;-62
2023/10/29 07:26:59;;;;;;;1999.90;999.90;;;;;;;17.51;83.50;99122.97;10542472;28;20134;-62
2023/10/29 07:32:02;;;;;;;1999.90;999.90;;;;;;;17.92;79.35;99117.47;10542920;28;20047;-62
2023/10/29 07:37:05;;;;;;;1999.90;999.90;;;;;;;17.18;80.48;99119.66;10523188;28;20454;-62
2023/10/29 07:42:07;;;;;;;1999.90;999.90;;;;;;;17.85;82.86;99115.69;10541778;28;20396;-62
2023/10/29 07:47:11;;;;;;;1999.90;999.90;;;;;;;18.17;81.69;99126.06;10541787;28;20052;-62
2023/10/29 07:52:13;;;;;;;1999.90;999.90;;;;;;;17.32;83.72;99134.00;10541950;28;20059;-62
2023/10/29 07:57:16;;;;;;;1999.90;999.90;;;;;;;18.20;78.22;99130.16;10541959;28;20051;-62
2023/10/29 08:02:18;;;;;;;1999.90;999.90;;;;;;;18.86;76.70;99143.69;10541010;28;20197;-62
2023/10/29 08:07:20;;;;;;;1999.90;999.90;;;;;;;19.39;76.54;99142.72;10541533;28;20072;-62
2023/10/29 08:12:23;;;;;;;1999.90;999.90;;;;;;;20.68;74.45;99149.94;10541359;28;20047;-62
2023/10/29 08:17:26;;;;;;;1999.90;999.90;;;;;;;20.28;70.44;99160.25;10541203;28;20062;-62
2023/10/29 08:22:28;;;;;;;1999.90;999.90;;;;;;;20.45;72.48;99160.78;10540928;28;20048;-62
2023/10/29 08:27:31;;;;;;;1999.90;999.90;;;;;;;21.09;68.63;99171.28;10540826;28;20081;-63
2023/10/29 08:32:34;;;;;;;1999.90;999.90;;;;;;;21.42;68.86;99183.13;10540684;28;20048;-62
2023/10/29 08:37:37;;;;;;;1999.90;999.90;;;;;;;21.87;64.87;99184.34;10540238;28;20113;-62
2023/10/29 08:42:40;;;;;;;1999.90;999.90;;;;;;;20.35;66.49;99193.00;10540315;28;20048;-62
2023/10/29 08:47:42;;;;;;;1999.90;999.90;;;;;;;20.73;65.36;99198.06;10540051;28;20153;-62
2023/10/29 08:52:44;;;;;;;1999.90;999.90;;;;;;;21.46;65.39;99185.19;10521569;28;20389;-62
2023/10/29 08:57:47;;;;;;;1999.90;999.90;;;;;;;22.01;62.26;99197.69;10541153;28;20083;-62
2023/10/29 09:02:50;;;;;;;1999.90;999.90;;;;;;;21.90;59.13;99217.75;10540200;28;20048;-62
2023/10/29 09:07:53;;;;;;;1999.90;999.90;;;;;;;23.41;58.52;99227.06;10539697;28;20048;-63
2023/10/29 09:12:56;;;;;;;1999.90;999.90;;;;;;;23.11;56.99;99230.19;10539178;28;20123;-62
2023/10/29 09:17:58;;;;;;;1999.90;999.90;;;;;;;23.05;56.41;99249.69;10540258;28;20054;-63
2023/10/29 09:23:01;;;;;;;1999.90;999.90;;;;;;;21.64;57.33;99264.56;10539446;28;20066;-62
2023/10/29 09:28:05;;;;;;;1999.90;999.90;;;;;;;24.40;52.67;99264.25;10539694;28;20082;-62
2023/10/29 09:33:08;;;;;;;1999.90;999.90;;;;;;;22.37;54.72;99274.69;10521306;28;20082;-62
2023/10/29 09:38:11;;;;;;;1999.90;999.90;;;;;;;21.38;60.12;99283.84;10520618;28;20053;-62
2023/10/29 09:43:14;;;;;;;1999.90;999.90;;;;;;;21.76;53.67;99269.34;10521298;28;20050;-63
2023/10/29 09:48:16;;;;;;;1999.90;999.90;;;;;;;23.80;53.70;99261.84;10521252;28;20048;-62
2023/10/29 09:53:19;;;;;;;1999.90;999.90;;;;;;;24.87;51.89;99266.63;10538291;28;20044;-63
2023/10/29 09:58:23;;;;;;;1999.90;999.90;;;;;;;25.26;52.56;99269.97;10521171;28;20131;-63
2023/10/29 10:03:26;;;;;;;1999.90;999.90;;;;;;;24.41;51.28;99285.44;10545745;28;20500;-63
2023/10/29 10:08:30;;;;;;;1999.90;999.90;;;;;;;23.75;49.94;99267.81;10546242;28;20131;-63
2023/10/29 10:13:41;;;;;;;1999.90;999.90;;;;;;;23.71;52.80;99283.47;10528125;28;20044;-62
2023/10/29 10:18:55;;;;;;;1999.90;999.90;;;;;;;22.85;54.84;99260.38;10528108;28;20052;-63
2023/10/29 10:23:58;;;;;;;1999.90;999.90;;;;;;;21.04;56.58;99247.38;10527611;28;20040;-63
2023/10/29 10:29:02;;;;;;;1999.90;999.90;;;;;;;21.37;58.19;99252.94;10544996;28;20501;-62
2023/10/29 10:34:18;;;;;;;1999.90;999.90;;;;;;;21.34;55.71;99262.13;10545225;28;20048;-63
2023/10/29 10:39:25;;;;;;;1999.90;999.90;;;;;;;20.30;58.20;99253.88;10544762;28;20064;-62
2023/10/29 10:44:29;;;;;;;1999.90;999.90;;;;;;;20.48;55.46;99251.59;10527526;28;20048;-63
2023/10/29 10:49:33;;;;;;;1999.90;999.90;;;;;;;20.59;57.78;99256.41;10526318;28;20572;-62
2023/10/29 10:54:35;;;;;;;1999.90;999.90;;;;;;;21.55;54.75;99268.41;10544556;28;20048;-63
2023/10/29 10:59:39;;;;;;;1999.90;999.90;;;;;;;21.84;55.60;99280.66;10509152;28;20058;-63
2023/10/29 11:04:42;;;;;;;1999.90;999.90;;;;;;;21.48;53.66;99286.19;10510122;28;20085;-63
2023/10/29 11:09:46;;;;;;;1999.90;999.90;;;;;;;21.01;57.36;99298.31;10542531;28;20504;-62
2023/10/29 11:15:14;;;;;;;1999.90;999.90;;;;;;;20.28;60.60;99306.41;10543219;28;20044;-62
2023/10/29 11:20:39;;;;;;;1999.90;999.90;;;;;;;20.27;58.10;99284.28;10534569;28;20044;-62
2023/10/29 11:25:42;;;;;;;1999.90;999.90;;;;;;;19.70;62.47;99287.66;10543269;28;20071;-62
2023/10/29 11:31:14;;;;;;;1999.90;999.90;;;;;;;19.69;62.25;99289.50;10524966;28;20504;-62
2023/10/29 11:36:38;;;;;;;1999.90;999.90;;;;;;;19.88;61.70;99277.53;10524072;28;20140;-62
2023/10/29 11:41:41;;;;;;;1999.90;999.90;;;;;;;19.65;61.38;99270.47;10520796;28;20048;-62
2023/10/29 11:46:55;;;;;;;1999.90;999.90;;;;;;;18.99;64.13;99265.00;10524865;28;20044;-62
2023/10/29 11:52:02;;;;;;;1999.90;999.90;;;;;;;19.65;63.95;99240.44;10448834;22;20409;-63
2023/10/29 11:57:06;;;;;;;1999.90;999.90;;;;;;;19.44;63.48;99238.53;10369952;28;20049;-63
2023/10/29 12:02:08;;;;;;;1999.90;999.90;;;;;;;19.45;62.97;99232.19;10366496;28;20379;-63
2023/10/29 12:07:25;;;;;;;1999.90;999.90;;;;;;;20.55;60.57;99204.63;10350512;28;20155;-63
2023/10/29 12:12:27;;;;;;;1999.90;999.90;;;;;;;21.20;58.46;99206.34;10370757;28;20042;-63
2023/10/29 12:17:29;;;;;;;1999.90;999.90;;;;;;;22.41;54.81;99197.81;10369394;28;20412;-63
2023/10/29 12:22:32;;;;;;;1999.90;999.90;;;;;;;21.47;58.73;99210.00;10351986;28;20050;-63
2023/10/29 12:27:39;;;;;;;1999.90;999.90;;;;;;;20.21;61.31;99192.88;10369089;28;20417;-63
2023/10/29 12:32:41;;;;;;;1999.90;999.90;;;;;;;20.24;60.90;99212.94;10369568;28;20046;-63
2023/10/29 12:37:53;;;;;;;1999.90;999.90;;;;;;;20.52;59.10;99207.66;10369270;28;20413;-63
2023/10/29 12:42:57;;;;;;;1999.90;999.90;;;;;;;20.10;59.21;99196.03;10369212;28;20042;-63
2023/10/29 12:48:15;;;;;;;1999.90;999.90;;;;;;;19.64;61.51;99210.41;10369726;28;20054;-63
2023/10/29 12:53:29;;;;;;;1999.90;999.90;;;;;;;20.27;60.36;99225.03;10351518;28;20107;-63
2023/10/29 12:58:31;;;;;;;1999.90;999.90;;;;;;;19.62;61.94;99232.84;10350885;28;20391;-63
2023/10/29 13:03:34;;;;;;;1999.90;999.90;;;;;;;20.04;61.70;99229.50;10368623;28;20129;-63
2023/10/29 13:08:39;;;;;;;1999.90;999.90;;;;;;;19.91;60.65;99221.38;10367892;28;20486;-63
2023/10/29 13:13:42;;;;;;;1999.90;999.90;;;;;;;19.84;63.82;99201.91;10368923;28;20094;-63
2023/10/29 13:18:51;;;;;;;1999.90;999.90;;;;;;;19.74;64.28;99214.63;10367707;28;20054;-63
2023/10/29 13:23:53;;;;;;;1999.90;999.90;;;;;;;20.08;63.61;99203.38;10350807;28;20103;-63
2023/10/29 13:28:56;;;;;;;1999.90;999.90;;;;;;;19.83;63.12;99195.75;10368022;28;20050;-63
2023/10/29 13:33:59;;;;;;;1999.90;999.90;;;;;;;19.33;63.12;99186.72;10368478;28;20042;-63
2023/10/29 13:39:01;;;;;;;1999.90;999.90;;;;;;;19.10;64.49;99162.97;10356984;28;20046;-63
2023/10/29 13:44:04;;;;;;;1999.90;999.90;;;;;;;19.05;64.04;99152.91;10357324;28;20050;-63
2023/10/29 13:49:06;;;;;;;1999.90;999.90;;;;;;;18.53;67.18;99159.03;10374037;28;20478;-63
2023/10/29 13:54:09;;;;;;;1999.90;999.90;;;;;;;18.89;65.72;99172.47;10357030;28;20054;-63
2023/10/29 13:59:14;;;;;;;1999.90;999.90;;;;;;;18.89;68.96;99166.34;10374462;28;20057;-63
2023/10/29 14:04:16;;;;;;;1999.90;999.90;;;;;;;18.26;71.88;99184.28;10356613;28;20048;-63
2023/10/29 14:09:19;;;;;;;1999.90;999.90;;;;;;;17.96;74.16;99174.38;10374109;28;20057;-63
2023/10/29 14:14:23;;;;;;;1999.90;999.90;;;;;;;17.94;74.69;99171.06;10373887;28;20054;-63
2023/10/29 14:19:26;;;;;;;1999.90;999.90;;;;;;;18.71;71.26;99171.94;10373812;28;20141;-63
2023/10/29 14:24:30;;;;;;;1999.90;999.90;;;;;;;18.85;70.44;99163.22;10374009;28;20077;-63
2023/10/29 14:29:32;;;;;;;1999.90;999.90;;;;;;;18.55;73.76;99144.59;10373376;28;20103;-63
2023/10/29 14:34:35;;;;;;;1999.90;999.90;;;;;;;18.63;75.12;99140.25;10355942;28;20046;-63
2023/10/29 14:39:37;;;;;;;1999.90;999.90;;;;;;;18.57;73.71;99139.13;10372485;28;20405;-63
2023/10/29 14:44:39;;;;;;;1999.90;999.90;;;;;;;18.26;76.90;99142.72;10372550;28;20050;-63
2023/10/29 14:49:44;;;;;;;1999.90;999.90;;;;;;;18.29;76.80;99138.88;10372653;28;20078;-64
2023/10/29 14:54:46;;;;;;;1999.90;999.90;;;;;;;18.37;77.85;99133.50;10372602;28;20398;-63
2023/10/29 14:59:49;;;;;;;1999.90;999.90;;;;;;;18.16;79.54;99118.28;10371867;28;20103;-63
2023/10/29 15:04:55;;;;;;;1999.90;999.90;;;;;;;18.27;80.00;99087.91;10372264;28;20052;-63
2023/10/29 15:09:58;;;;;;;1999.90;999.90;;;;;;;18.53;77.39;99090.16;10372229;28;20099;-63
2023/10/29 15:15:00;;;;;;;1999.90;999.90;;;;;;;18.28;78.91;99105.44;10372010;28;20061;-63
2023/10/29 15:20:05;;;;;;;1999.90;999.90;;;;;;;17.35;80.18;99113.31;10371839;28;20080;-64
2023/10/29 15:25:08;;;;;;;1999.90;999.90;;;;;;;16.60;88.02;99126.91;10354852;28;20054;-62
2023/10/29 15:30:11;;;;;;;1999.90;999.90;;;;;;;17.69;84.13;99128.03;10337756;28;20504;-63
2023/10/29 15:35:13;;;;;;;1999.90;999.90;;;;;;;17.92;82.85;99132.53;10370886;28;20486;-63
2023/10/29 15:40:16;;;;;;;1999.90;999.90;;;;;;;17.47;82.78;99137.56;10371182;28;20054;-63
2023/10/29 15:45:18;;;;;;;1999.90;999.90;;;;;;;17.52;82.19;99143.16;10371108;28;20056;-63
2023/10/29 15:50:21;;;;;;;1999.90;999.90;;;;;;;17.77;81.91;99135.91;10353741;28;20054;-63
2023/10/29 15:55:23;;;;;;;1999.90;999.90;;;;;;;18.20;78.63;99144.22;10370799;28;20046;-63
2023/10/29 16:00:26;;;;;;;1999.90;999.90;;;;;;;17.93;77.86;99144.78;10368957;28;20490;-63
2023/10/29 16:05:29;;;;;;;1999.90;999.90;;;;;;;17.85;77.99;99142.97;10369850;28;20460;-63
2023/10/29 16:10:31;;;;;;;1999.90;999.90;;;;;;;17.82;79.82;99143.34;10369636;28;20398;-63
2023/10/29 16:15:33;;;;;;;1999.90;999.90;;;;;;;17.60;80.86;99152.88;10369513;28;20464;-63
2023/10/29 16:20:36;;;;;;;1999.90;999.90;;;;;;;17.38;80.28;99165.91;10352419;28;20414;-63
2023/10/29 16:25:38;;;;;;;1999.90;999.90;;;;;;;18.16;79.10;99158.03;10369212;28;20049;-63
2023/10/29 16:30:41;;;;;;;1999.90;999.90;;;;;;;18.01;79.06;99150.84;10369665;28;20127;-63
2023/10/29 16:35:43;;;;;;;1999.90;999.90;;;;;;;17.97;78.97;99157.50;10335556;28;20046;-63
2023/10/29 16:40:47;;;;;;;1999.90;999.90;;;;;;;17.89;78.15;99160.19;10369232;28;20407;-63
2023/10/29 16:45:50;;;;;;;1999.90;999.90;;;;;;;17.54;80.27;99164.97;10369664;28;20124;-63
2023/10/29 16:50:52;;;;;;;1999.90;999.90;;;;;;;17.78;79.30;99169.31;10368747;28;20093;-63
2023/10/29 16:56:08;;;;;;;1999.90;999.90;;;;;;;17.98;77.61;99161.78;10368352;28;20510;-63
2023/10/29 17:01:14;;;;;;;1999.90;999.90;;;;;;;17.22;81.46;99169.41;10350724;28;20406;-63
2023/10/29 17:06:17;;;;;;;1999.90;999.90;;;;;;;18.03;76.55;99168.38;10368728;28;20053;-63
2023/10/29 17:11:20;;;;;;;1999.90;999.90;;;;;;;17.12;80.90;99170.63;10374865;28;20125;-63
2023/10/29 17:16:22;;;;;;;1999.90;999.90;;;;;;;17.67;80.24;99180.31;10375777;28;20050;-63
2023/10/29 17:21:24;;;;;;;1999.90;999.90;;;;;;;17.57;81.54;99191.09;10374909;28;20046;-63
2023/10/29 17:26:27;;;;;;;1999.90;999.90;;;;;;;17.67;78.30;99196.19;10374823;28;20459;-63
2023/10/29 17:31:29;;;;;;;1999.90;999.90;;;;;;;17.58;80.76;99218.38;10375328;28;20045;-62
2023/10/29 17:36:32;;;;;;;1999.90;999.90;;;;;;;16.92;85.32;99207.19;10375061;28;20492;-62
2023/10/29 17:41:34;;;;;;;1999.90;999.90;;;;;;;17.17;81.40;99216.69;10358070;28;20104;-62
2023/10/29 17:46:37;;;;;;;1999.90;999.90;;;;;;;17.27;81.33;99242.97;10374262;28;20601;-63
2023/10/29 17:51:39;;;;;;;1999.90;999.90;;;;;;;17.16;79.66;99244.13;10374533;28;20107;-63
2023/10/29 17:56:41;;;;;;;1999.90;999.90;;;;;;;16.97;81.23;99252.44;10374527;28;20060;-63
2023/10/29 18:01:44;;;;;;;1999.90;999.90;;;;;;;17.42;78.33;99269.53;10374814;28;20046;-63
2023/10/29 18:06:50;;;;;;;1999.90;999.90;;;;;;;17.68;76.35;99269.28;10374116;28;20054;-63
2023/10/29 18:11:55;;;;;;;1999.90;999.90;;;;;;;17.72;78.12;99275.03;10356698;28;20050;-63
2023/10/29 18:16:58;;;;;;;1999.90;999.90;;;;;;;16.98;80.97;99286.63;10373307;28;20557;-63
2023/10/29 18:22:01;;;;;;;1999.90;999.90;;;;;;;16.98;80.47;99301.66;10372294;28;20448;-63
2023/10/29 18:27:04;;;;;;;1999.90;999.90;;;;;;;17.21;79.75;99304.44;10373533;28;20050;-63
2023/10/29 18:32:06;;;;;;;1999.90;999.90;;;;;;;17.39;77.58;99318.31;10373369;28;20112;-63
2023/10/29 18:37:09;;;;;;;1999.90;999.90;;;;;;;16.40;85.02;99332.47;10373235;28;20046;-63
2023/10/29 18:42:11;;;;;;;1999.90;999.90;;;;;;;16.94;78.47;99340.00;10372928;28;20050;-62
2023/10/29 18:47:13;;;;;;;1999.90;999.90;;;;;;;16.67;77.57;99353.31;10355642;28;20057;-62
2023/10/29 18:52:18;;;;;;;1999.90;999.90;;;;;;;16.64;76.16;99395.94;10372449;28;20257;-62
2023/10/29 18:57:22;;;;;;;1999.90;999.90;;;;;;;16.51;75.50;99382.34;10372621;28;20050;-62
2023/10/29 19:02:24;;;;;;;1999.90;999.90;;;;;;;17.17;72.00;99382.47;10372365;28;20056;-63
2023/10/29 19:07:27;;;;;;;1999.90;999.90;;;;;;;16.50;71.85;99386.78;10371684;28;20062;-62
2023/10/29 19:12:29;;;;;;;1999.90;999.90;;;;;;;16.46;71.91;99408.44;10372113;28;20042;-62
2023/10/29 19:17:32;;;;;;;1999.90;999.90;;;;;;;16.89;70.21;99409.22;10372034;28;20050;-62
2023/10/29 19:22:36;;;;;;;1999.90;999.90;;;;;;;16.95;68.72;99429.72;10371263;28;20508;-63
2023/10/29 19:27:39;;;;;;;1999.90;999.90;;;;;;;16.81;68.85;99428.50;10354577;28;20053;-62
2023/10/29 19:32:43;;;;;;;1999.90;999.90;;;;;;;16.74;68.28;99451.28;10370389;28;20046;-63
2023/10/29 19:37:46;;;;;;;1999.90;999.90;;;;;;;16.69;70.18;99457.06;10370734;28;20387;-62
2023/10/29 19:42:48;;;;;;;1999.90;999.90;;;;;;;16.92;68.50;99456.47;10371380;28;20050;-63
2023/10/29 19:47:50;;;;;;;1999.90;999.90;;;;;;;17.14;65.69;99465.59;10370433;28;20486;-63
2023/10/29 19:52:53;;;;;;;1999.90;999.90;;;;;;;16.86;67.09;99478.25;10370820;28;20054;-63
2023/10/29 19:57:57;;;;;;;1999.90;999.90;;;;;;;16.71;67.34;99492.06;10353439;28;20053;-63
2023/10/29 20:03:01;;;;;;;1999.90;999.90;;;;;;;16.72;66.80;99504.28;10370470;28;20081;-62
2023/10/29 20:08:04;;;;;;;1999.90;999.90;;;;;;;16.88;67.56;99521.25;10370393;28;20058;-63
2023/10/29 20:13:07;;;;;;;1999.90;999.90;;;;;;;16.69;67.03;99538.13;10352873;28;20076;-63
2023/10/29 20:18:09;;;;;;;1999.90;999.90;;;;;;;17.03;65.88;99540.78;10352724;28;20054;-63
2023/10/29 20:23:11;;;;;;;1999.90;999.90;;;;;;;16.25;70.01;99551.44;10369897;28;20046;-63
2023/10/29 20:28:14;;;;;;;1999.90;999.90;;;;;;;16.35;69.69;99560.91;10369788;28;20050;-63
2023/10/29 20:33:16;;;;;;;1999.90;999.90;;;;;;;16.59;69.40;99569.94;10369625;28;20129;-63
2023/10/29 20:38:19;;;;;;;1999.90;999.90;;;;;;;16.43;69.41;99565.41;10369458;28;20057;-63
2023/10/29 20:43:21;;;;;;;1999.90;999.90;;;;;;;16.53;69.56;99573.25;10368895;28;20046;-62
2023/10/29 20:48:24;;;;;;;1999.90;999.90;;;;;;;15.93;70.38;99577.44;10369163;28;20060;-63
2023/10/29 20:53:26;;;;;;;1999.90;999.90;;;;;;;16.71;70.30;99579.28;10368373;28;20081;-63
2023/10/29 20:58:29;;;;;;;1999.90;999.90;;;;;;;16.15;71.33;99580.56;10368863;28;20058;-62
2023/10/29 21:03:32;;;;;;;1999.90;999.90;;;;;;;15.96;73.02;99592.16;10369242;28;20125;-63
2023/10/29 21:08:35;;;;;;;1999.90;999.90;;;;;;;16.45;72.06;99586.41;10368636;28;20058;-63
2023/10/29 21:13:37;;;;;;;1999.90;999.90;;;;;;;15.95;72.30;99596.59;10368549;28;20053;-62
2023/10/29 21:18:40;;;;;;;1999.90;999.90;;;;;;;16.05;73.52;99599.13;10350445;28;20414;-62
2023/10/29 21:23:42;;;;;;;1999.90;999.90;;;;;;;15.68;75.41;99605.38;10368068;28;20406;-62
2023/10/29 21:28:44;;;;;;;1999.90;999.90;;;;;;;16.15;74.02;99606.97;10367535;28;20147;-63
2023/10/29 21:33:47;;;;;;;1999.90;999.90;;;;;;;15.68;76.59;99607.19;10367326;28;20050;-62
2023/10/29 21:38:49;;;;;;;1999.90;999.90;;;;;;;15.95;75.16;99593.97;10367816;28;20057;-62
2023/10/29 21:43:52;;;;;;;1999.90;999.90;;;;;;;15.71;75.19;99594.53;10366957;28;20483;-63
2023/10/29 21:48:54;;;;;;;1999.90;999.90;;;;;;;15.29;73.68;99594.25;10350357;28;20056;-63
2023/10/29 21:53:56;;;;;;;1999.90;999.90;;;;;;;16.22;71.52;99592.16;10367339;28;20060;-63
2023/10/29 21:58:59;;;;;;;1999.90;999.90;;;;;;;16.14;72.71;99608.78;10374210;28;20062;-63
2023/10/29 22:04:02;;;;;;;1999.90;999.90;;;;;;;15.75;74.47;99605.59;10374158;28;20054;-63
2023/10/29 22:09:04;;;;;;;1999.90;999.90;;;;;;;16.06;72.71;99629.84;10373541;28;20439;-62
2023/10/29 22:14:07;;;;;;;1999.90;999.90;;;;;;;15.90;74.17;99638.47;10373386;28;20201;-63